Latest Weather Observations for Palmerville

IDQ60801

Issued at 3:32 pm EST Tuesday 27 January 2015 (issued every 30 minutes, with the page automatically refreshed every 10 minutes)

About weather observations | Map of weather stations | Latest weather observations for QLD | Other Formats
Station Details ID: 028004 Name: PALMERVILLE Lat: -16.00 Lon: 144.08 Height: 203.8 m
Data from the previous 72 hours. | See also: Recent months at Palmerville
Date/Time
EST
Temp
°C
App
Temp
°C
Dew
Point
Rel
Hum
%
Delta-T
°C
Wind Press
QNH
hPa
Press
MSL
hPa
Rain
since 9 am
mm
Dir
 
Spd
km/h
Gust
km/h
Spd
kts
Gust
kts
27/03:30pm 23.2 25.7 23.2 100 0.0 N 15 24 8 13 1003.4 1001.9 49.6
27/03:00pm 23.3 27.0 23.3 100 0.0 NNW 9 13 5 7 1004.1 1002.6 48.4
27/02:30pm 23.7 27.7 23.7 100 0.0 W 9 13 5 7 1004.7 1003.2 42.8
27/02:00pm 24.2 26.1 23.5 96 0.5 SSW 19 30 10 16 1004.6 1003.1 18.8
27/01:30pm 28.9 30.5 22.2 67 4.6 NNW 17 26 9 14 1003.5 1002.0 0.0
27/01:00pm 31.3 34.3 22.6 60 6.0 NW 11 19 6 10 1003.9 1002.4 0.0
27/12:30pm 31.9 34.4 21.7 54 6.9 WNW 11 19 6 10 1004.4 1002.9 0.0
27/12:00pm 31.8 34.8 21.9 55 6.8 NW 9 15 5 8 1004.9 1003.4 0.0
27/11:30am 31.8 35.9 23.3 60 5.9 NW 7 15 4 8 1005.4 1003.9 0.0
27/11:00am 30.6 33.0 22.2 61 5.8 W 13 20 7 11 1005.8 1004.4 0.0
27/10:30am 29.1 32.0 21.8 64 4.9 W 9 13 5 7 1005.9 1004.5 0.0
27/10:00am 28.8 32.8 22.8 70 4.1 WSW 6 9 3 5 1005.9 1004.5 0.0
27/09:30am 28.1 32.5 22.8 73 3.6 NNE 4 9 2 5 1006.0 1004.6 0.0
27/09:00am 27.1 30.8 22.5 76 3.1 NNW 7 9 4 5 1006.2 1004.8 1.4
27/08:30am 25.7 29.8 23.0 85 1.8 NNE 6 7 3 4 1006.5 1005.1 1.4
27/08:00am 25.0 29.6 22.5 86 1.7 NW 2 7 1 4 1006.7 1005.3 1.4
27/07:30am 24.6 29.3 21.9 85 1.8 CALM 0 6 0 3 1007.0 1005.6 1.4
27/07:00am 24.0 27.9 22.6 92 0.9 NNW 6 7 3 4 1007.0 1005.6 1.4
27/06:30am 23.6 27.8 21.7 89 1.3 E 2 9 1 5 1006.7 1005.3 1.4
27/06:00am 23.7 26.5 21.6 88 1.4 E 9 13 5 7 1006.7 1005.3 1.4
27/05:30am 23.5 26.6 21.4 88 1.4 NE 7 13 4 7 1006.4 1005.0 1.2
27/05:00am 23.9 27.0 21.0 84 1.9 ENE 6 7 3 4 1006.1 1004.7 1.0
27/04:30am 23.8 26.7 21.1 85 1.8 NE 7 9 4 5 1006.2 1004.8 1.0
27/04:00am 23.7 26.9 21.2 86 1.7 ENE 6 9 3 5 1006.3 1004.9 1.0
27/03:30am 23.8 27.6 20.9 84 1.9 ESE 2 7 1 4 1006.5 1005.1 1.0
27/03:00am 23.9 26.7 20.8 83 2.0 ESE 7 13 4 7 1006.6 1005.2 1.0
27/02:30am 24.0 26.8 20.9 83 2.0 ESE 7 15 4 8 1007.0 1005.6 1.0
27/02:00am 23.9 26.8 21.0 84 1.9 ESE 7 11 4 6 1007.1 1005.7 1.0
27/01:30am 24.1 25.9 21.2 84 1.9 E 13 20 7 11 1007.3 1005.9 1.0
27/01:00am 25.0 29.6 24.1 95 0.6 ESE 7 9 4 5 1007.9 1006.4 1.0
27/12:30am 24.9 29.6 24.0 95 0.6 SSW 6 9 3 5 1008.0 1006.5 1.0
27/12:00am 25.1 29.6 23.9 93 0.8 SSE 7 9 4 5 1008.1 1006.6 1.0
 
Date/Time
EST
Temp
°C
App
Temp
°C
Dew
Point
Rel
Hum
%
Delta-T
°C
Wind Press
QNH
hPa
Press
MSL
hPa
Rain
since 9 am
mm
Dir
 
Spd
km/h
Gust
km/h
Spd
kts
Gust
kts
26/11:30pm 25.3 31.1 23.9 92 1.0 CALM 0 0 0 0 1008.6 1007.1 0.8
26/11:00pm 25.8 30.4 23.1 85 1.8 W 4 7 2 4 1009.2 1007.7 0.4
26/10:30pm 26.3 29.5 22.4 79 2.6 WSW 9 19 5 10 1008.9 1007.4 0.2
26/10:00pm 27.7 28.9 22.2 72 3.7 WSW 19 30 10 16 1008.0 1006.5 0.2
26/09:30pm 29.1 31.4 22.8 69 4.3 W 15 28 8 15 1007.2 1005.8 0.2
26/09:00pm 29.2 33.4 23.2 70 4.1 WSW 6 7 3 4 1006.8 1005.4 0.2
26/08:30pm 28.8 33.2 23.5 73 3.7 WNW 6 7 3 4 1006.7 1005.3 0.2
26/08:00pm 29.3 33.4 23.0 69 4.3 W 6 7 3 4 1006.1 1004.7 0.2
26/07:30pm 29.6 33.4 22.8 67 4.7 WNW 7 9 4 5 1005.9 1004.5 0.2
26/07:00pm 30.5 33.9 22.7 63 5.4 WNW 9 13 5 7 1005.7 1004.3 0.2
26/06:30pm 31.0 34.7 22.6 61 5.8 W 7 13 4 7 1005.3 1003.8 0.2
26/06:00pm 31.5 34.5 21.9 56 6.6 W 9 15 5 8 1004.6 1003.1 0.2
26/05:30pm 31.9 34.9 22.6 58 6.4 W 11 17 6 9 1004.4 1002.9 0.2
26/05:00pm 33.0 36.5 22.1 52 7.5 WNW 7 13 4 7 1004.3 1002.8 0.2
26/04:30pm 33.1 36.9 23.4 56 6.8 NW 9 15 5 8 1004.1 1002.6 0.2
26/04:00pm 33.0 36.1 21.5 50 7.9 WNW 7 17 4 9 1004.3 1002.8 0.2
26/03:30pm 33.6 38.3 23.3 55 7.2 WSW 4 13 2 7 1004.6 1003.1 0.2
26/03:00pm 32.0 35.1 22.1 55 6.8 WNW 9 17 5 9 1005.4 1003.9 0.2
26/02:30pm 32.0 35.6 22.4 57 6.6 NNW 7 13 4 7 1005.6 1004.2 0.2
26/02:00pm 31.7 35.8 24.0 63 5.4 NNW 9 15 5 8 1006.0 1004.6 0.2
26/01:30pm 31.1 33.7 22.7 61 5.8 WNW 13 17 7 9 1006.5 1005.1 0.2
26/01:00pm 31.4 34.6 22.4 59 6.2 W 9 17 5 9 1007.0 1005.6 0.2
26/12:30pm 31.9 35.8 22.6 58 6.4 SW 6 11 3 6 1007.9 1006.4 0.2
26/12:00pm 30.6 34.9 23.3 65 5.1 NNW 6 13 3 7 1008.4 1006.9 0.2
26/11:30am 30.0 33.2 22.4 63 5.2 NW 9 13 5 7 1008.7 1007.2 0.2
26/11:00am 29.1 33.9 23.5 72 3.9 N 4 7 2 4 1009.2 1007.7 0.2
26/10:30am 27.9 31.1 23.1 75 3.3 WNW 11 15 6 8 1009.7 1008.2 0.0
26/10:00am 28.8 32.5 23.2 71 3.9 WNW 9 13 5 7 1009.8 1008.3 0.0
26/09:30am 28.3 31.9 23.0 73 3.6 W 9 17 5 9 1010.0 1008.6 0.0
26/09:00am 28.1 32.8 24.3 80 2.7 NW 7 11 4 6 1010.1 1008.7 0.0
26/08:30am 27.2 30.8 23.7 81 2.4 WNW 11 17 6 9 1010.0 1008.6 0.0
26/08:00am 26.8 30.8 23.7 83 2.1 NW 9 15 5 8 1010.0 1008.6 0.0
26/07:30am 26.4 31.8 23.3 83 2.1 CALM 0 0 0 0 1010.1 1008.7 0.0
26/07:00am 25.8 32.2 24.9 95 0.6 CALM 0 0 0 0 1009.9 1008.4 0.0
26/06:30am 25.3 31.9 25.3 100 0.0 CALM 0 0 0 0 1009.5 1008.0 0.0
26/06:00am 25.2 31.4 25.2 100 0.0 SSE 2 7 1 4 1009.1 1007.6 0.0
26/05:30am 25.1 31.6 25.1 100 0.0 CALM 0 0 0 0 1008.7 1007.2 0.0
26/05:00am 25.0 31.3 24.7 98 0.2 CALM 0 0 0 0 1008.3 1006.8 0.0
26/04:30am 25.2 31.7 25.0 99 0.1 CALM 0 0 0 0 1008.3 1006.8 0.0
26/04:00am 25.2 31.5 24.7 97 0.3 CALM 0 0 0 0 1008.3 1006.8 0.0
26/03:30am 25.3 31.8 25.0 98 0.2 CALM 0 0 0 0 1008.4 1006.9 0.0
26/03:00am 25.3 31.8 25.0 98 0.2 CALM 0 0 0 0 1008.5 1007.0 0.0
26/02:30am 25.1 31.6 25.1 100 0.0 CALM 0 0 0 0 1008.4 1006.9 0.0
26/02:00am 24.9 31.3 24.9 100 0.0 CALM 0 0 0 0 1008.4 1006.9 0.0
26/01:30am 24.9 31.3 24.9 100 0.0 CALM 0 0 0 0 1008.9 1007.4 0.0
26/01:00am 24.9 31.2 24.7 99 0.1 CALM 0 0 0 0 1009.4 1007.9 0.0
26/12:30am 25.1 31.3 24.6 97 0.3 CALM 0 0 0 0 1009.9 1008.4 0.0
26/12:00am 25.2 31.2 24.3 95 0.6 CALM 0 0 0 0 1010.3 1008.9 0.0
 
Date/Time
EST
Temp
°C
App
Temp
°C
Dew
Point
Rel
Hum
%
Delta-T
°C
Wind Press
QNH
hPa
Press
MSL
hPa
Rain
since 9 am
mm
Dir
 
Spd
km/h
Gust
km/h
Spd
kts
Gust
kts
25/11:30pm 25.3 31.5 24.6 96 0.5 CALM 0 0 0 0 1010.3 1008.9 0.0
25/11:00pm 25.5 31.7 24.6 95 0.6 CALM 0 0 0 0 1010.4 1009.0 0.0
25/10:30pm 25.6 31.7 24.4 93 0.8 CALM 0 0 0 0 1010.3 1008.9 0.0
25/10:00pm 25.7 31.5 23.9 90 1.2 CALM 0 0 0 0 1010.0 1008.6 0.0
25/09:30pm 25.8 31.5 23.7 88 1.4 CALM 0 0 0 0 1009.4 1007.9 0.0
25/09:00pm 26.0 30.7 23.3 85 1.9 SW 4 6 2 3 1009.4 1007.9 0.0
25/08:30pm 26.1 31.2 23.4 85 1.9 SW 2 6 1 3 1009.1 1007.6 0.0
25/08:00pm 26.2 30.3 23.3 84 2.0 WNW 7 11 4 6 1008.6 1007.1 0.0
25/07:30pm 26.5 30.9 23.4 83 2.1 WNW 6 7 3 4 1008.3 1006.8 0.0
25/07:00pm 26.8 30.8 23.1 80 2.5 WNW 7 13 4 7 1008.5 1007.0 0.0
25/06:30pm 27.2 30.7 22.8 77 3.0 W 9 13 5 7 1008.4 1006.9 0.0
25/06:00pm 27.6 30.8 23.0 76 3.2 W 11 17 6 9 1008.2 1006.7 0.0
25/05:30pm 28.8 32.4 23.0 71 4.0 WNW 9 17 5 9 1007.7 1006.3 0.0
25/05:00pm 29.0 33.5 23.7 73 3.7 NW 6 9 3 5 1007.7 1006.3 0.0
25/04:30pm 29.2 33.1 23.6 72 3.9 NNW 9 15 5 8 1006.9 1005.5 0.0
25/04:00pm 30.1 33.5 24.0 70 4.3 NW 13 26 7 14 1007.7 1006.3 0.0
25/03:30pm 29.2 31.9 24.1 74 3.6 NNW 17 30 9 16 1007.5 1006.1 0.0
25/03:00pm 30.8 33.3 23.2 64 5.3 NNW 15 24 8 13 1007.3 1005.9 0.0
25/02:30pm 32.2 35.8 22.3 56 6.8 NW 7 11 4 6 1007.4 1006.0 0.0
25/02:00pm 32.4 35.5 22.8 57 6.7 WSW 11 17 6 9 1007.4 1006.0 0.0
25/01:30pm 31.6 33.6 22.3 57 6.4 NW 15 24 8 13 1008.1 1006.6 0.0
25/01:00pm 32.0 33.7 22.4 57 6.6 WNW 17 28 9 15 1008.5 1007.0 0.0
25/12:30pm 31.3 33.7 22.9 61 5.8 NW 15 20 8 11 1009.2 1007.7 0.0
25/12:00pm 31.2 33.2 22.2 58 6.2 NW 15 22 8 12 1009.7 1008.2 0.0
25/11:30am 30.5 33.5 23.4 66 4.9 NW 13 22 7 12 1010.2 1008.8 0.0
25/11:00am 30.0 33.2 23.7 69 4.4 NW 13 19 7 10 1010.8 1009.4 0.0
25/10:30am 29.3 32.1 23.0 69 4.3 NW 13 17 7 9 1010.9 1009.5 0.0
25/10:00am 29.4 34.8 25.4 79 2.8 NNW 7 15 4 8 1011.3 1009.9 0.0
25/09:30am 27.4 31.1 23.2 78 2.9 N 9 17 5 9 1011.4 1010.0 0.0
25/09:00am 27.6 31.5 23.6 79 2.8 N 9 15 5 8 1011.7 1010.3 20.4
25/08:30am 26.9 30.9 23.8 83 2.1 NNW 9 15 5 8 1011.6 1010.2 20.4
25/08:00am 26.4 31.2 24.1 87 1.6 NNW 6 11 3 6 1011.4 1010.0 20.4
25/07:30am 25.5 30.4 24.3 93 0.8 N 6 13 3 7 1011.3 1009.9 20.4
25/07:00am 25.0 30.1 24.1 95 0.6 N 4 7 2 4 1011.0 1009.6 20.4
25/06:30am 24.7 31.0 24.7 100 0.0 CALM 0 7 0 4 1010.5 1009.1 20.4
25/06:00am 24.5 30.5 24.3 99 0.1 CALM 0 0 0 0 1010.1 1008.7 20.2
25/05:30am 24.5 30.3 24.5 100 0.0 NNE 2 7 1 4 1010.0 1008.6 20.2
25/05:00am 24.5 30.5 24.3 99 0.1 CALM 0 0 0 0 1010.0 1008.6 20.2
25/04:30am 24.6 30.8 24.6 100 0.0 CALM 0 0 0 0 1009.8 1008.3 20.2
25/04:00am 24.6 30.8 24.6 100 0.0 CALM 0 0 0 0 1009.6 1008.1 20.2
25/03:30am 24.5 30.5 24.3 99 0.1 CALM 0 0 0 0 1009.4 1007.9 20.2
25/03:00am 24.6 30.8 24.6 100 0.0 CALM 0 0 0 0 1009.2 1007.7 20.2
25/02:30am 24.7 31.0 24.7 100 0.0 CALM 0 0 0 0 1009.4 1007.9 20.2
25/02:00am 24.8 31.1 24.8 100 0.0 CALM 0 0 0 0 1009.6 1008.1 20.2
25/01:30am 24.9 31.3 24.9 100 0.0 CALM 0 0 0 0 1009.9 1008.4 20.2
25/01:00am 24.9 31.3 24.9 100 0.0 CALM 0 0 0 0 1010.1 1008.7 20.2
25/12:30am 25.0 31.5 25.0 100 0.0 CALM 0 0 0 0 1010.6 1009.2 20.2
25/12:00am 25.1 31.6 25.1 100 0.0 CALM 0 0 0 0 1010.9 1009.5 20.2
 
Date/Time
EST
Temp
°C
App
Temp
°C
Dew
Point
Rel
Hum
%
Delta-T
°C
Wind Press
QNH
hPa
Press
MSL
hPa
Rain
since 9 am
mm
Dir
 
Spd
km/h
Gust
km/h
Spd
kts
Gust
kts
24/11:30pm 25.0 31.5 25.0 100 0.0 CALM 0 0 0 0 1011.4 1010.0 20.0
24/11:00pm 25.1 30.9 25.1 100 0.0 E 4 7 2 4 1011.5 1010.1 20.0
24/10:30pm 25.1 31.6 25.1 100 0.0 CALM 0 0 0 0 1011.4 1010.0 19.8
24/10:00pm 25.1 31.6 25.1 100 0.0 CALM 0 4 0 2 1011.0 1009.6 19.8
24/09:30pm 25.0 30.3 25.0 100 0.0 E 6 7 3 4 1010.5 1009.1 19.8
24/09:00pm 24.9 31.0 24.4 97 0.3 CALM 0 0 0 0 1010.5 1009.1 19.8
24/08:30pm 25.1 30.2 24.6 97 0.3 NW 6 9 3 5 1010.4 1009.0 19.8
24/08:00pm 25.3 31.6 24.8 97 0.3 CALM 0 0 0 0 1009.5 1008.0 18.8
24/07:30pm 25.2 30.8 24.3 95 0.6 ENE 2 6 1 3 1009.1 1007.6 18.8
24/07:00pm 25.3 30.8 24.6 96 0.5 NNE 4 7 2 4 1008.6 1007.1 18.8
24/06:30pm 25.6 32.3 25.4 99 0.1 CALM 0 0 0 0 1008.2 1006.7 18.6
24/06:00pm 25.3 31.9 25.3 100 0.0 CALM 0 0 0 0 1007.9 1006.4 18.4
24/05:30pm 25.0 31.5 25.0 100 0.0 CALM 0 4 0 2 1007.1 1005.7 18.4
24/05:00pm 24.7 30.0 24.4 98 0.2 NW 4 11 2 6 1007.2 1005.8 18.4
24/04:30pm 25.8 31.2 25.5 98 0.2 N 7 11 4 6 1006.9 1005.5 14.2
24/04:00pm 25.8 29.8 25.1 96 0.5 WSW 13 20 7 11 1006.5 1005.1 9.4

Other Formats:

Comma delimited format used in spreadsheet applications
http://www.bom.gov.au/fwo/IDQ60801/IDQ60801.94276.axf

JavaScript Object Notation format (JSON) in row-major order
http://www.bom.gov.au/fwo/IDQ60801/IDQ60801.94276.json